sensor_id;sensor_type;location;lat;lon;timestamp;pressure;altitude;pressure_sealevel;temperature;humidity
19736;BME280;32064;49.310;8.646;2023-05-07T00:00:52;100397.53;;;18.74;67.13
19736;BME280;32064;49.310;8.646;2023-05-07T00:03:18;100410.00;;;18.73;67.01
19736;BME280;32064;49.310;8.646;2023-05-07T00:05:44;100414.38;;;18.74;66.47
19736;BME280;32064;49.310;8.646;2023-05-07T00:08:10;100403.00;;;18.72;67.16
19736;BME280;32064;49.310;8.646;2023-05-07T00:10:35;100394.31;;;18.70;67.07
19736;BME280;32064;49.310;8.646;2023-05-07T00:13:01;100408.16;;;18.66;67.91
19736;BME280;32064;49.310;8.646;2023-05-07T00:15:26;100399.78;;;18.60;67.09
19736;BME280;32064;49.310;8.646;2023-05-07T00:17:51;100399.78;;;18.60;66.36
19736;BME280;32064;49.310;8.646;2023-05-07T00:20:17;100392.94;;;18.58;66.89
19736;BME280;32064;49.310;8.646;2023-05-07T00:22:42;100393.09;;;18.56;67.32
19736;BME280;32064;49.310;8.646;2023-05-07T00:25:08;100388.28;;;18.52;66.87
19736;BME280;32064;49.310;8.646;2023-05-07T00:27:33;100382.25;;;18.50;67.37
19736;BME280;32064;49.310;8.646;2023-05-07T00:29:59;100378.06;;;18.47;67.48
19736;BME280;32064;49.310;8.646;2023-05-07T00:32:24;100383.03;;;18.42;67.77
19736;BME280;32064;49.310;8.646;2023-05-07T00:34:49;100384.03;;;18.41;67.92
19736;BME280;32064;49.310;8.646;2023-05-07T00:37:16;100383.53;;;18.37;68.46
19736;BME280;32064;49.310;8.646;2023-05-07T00:39:41;100377.88;;;18.40;67.52
19736;BME280;32064;49.310;8.646;2023-05-07T00:42:06;100389.69;;;18.38;68.42
19736;BME280;32064;49.310;8.646;2023-05-07T00:44:33;100381.19;;;18.34;67.24
19736;BME280;32064;49.310;8.646;2023-05-07T00:47:02;100378.53;;;18.34;67.08
19736;BME280;32064;49.310;8.646;2023-05-07T00:49:46;100378.47;;;18.26;68.28
19736;BME280;32064;49.310;8.646;2023-05-07T00:52:14;100374.97;;;18.26;68.35
19736;BME280;32064;49.310;8.646;2023-05-07T00:54:41;100371.78;;;18.22;68.26
19736;BME280;32064;49.310;8.646;2023-05-07T00:57:09;100373.47;;;18.23;67.38
19736;BME280;32064;49.310;8.646;2023-05-07T00:59:34;100370.13;;;18.21;68.01
19736;BME280;32064;49.310;8.646;2023-05-07T01:02:00;100365.25;;;18.16;67.69
19736;BME280;32064;49.310;8.646;2023-05-07T01:04:26;100365.44;;;18.15;67.65
19736;BME280;32064;49.310;8.646;2023-05-07T01:06:52;100360.44;;;18.12;69.43
19736;BME280;32064;49.310;8.646;2023-05-07T01:09:19;100362.03;;;18.05;69.16
19736;BME280;32064;49.310;8.646;2023-05-07T01:11:47;100360.50;;;18.02;69.70
19736;BME280;32064;49.310;8.646;2023-05-07T01:14:13;100363.66;;;17.98;69.08
19736;BME280;32064;49.310;8.646;2023-05-07T01:16:38;100359.31;;;17.97;69.11
19736;BME280;32064;49.310;8.646;2023-05-07T01:19:07;100363.94;;;17.94;68.99
19736;BME280;32064;49.310;8.646;2023-05-07T01:21:33;100362.47;;;17.92;69.24
19736;BME280;32064;49.310;8.646;2023-05-07T01:24:00;100365.97;;;17.92;69.29
19736;BME280;32064;49.310;8.646;2023-05-07T01:26:26;100365.59;;;17.87;69.56
19736;BME280;32064;49.310;8.646;2023-05-07T01:28:51;100357.09;;;17.84;68.42
19736;BME280;32064;49.310;8.646;2023-05-07T01:31:17;100363.91;;;17.86;68.05
19736;BME280;32064;49.310;8.646;2023-05-07T01:33:44;100360.56;;;17.84;69.69
19736;BME280;32064;49.310;8.646;2023-05-07T01:36:11;100356.38;;;17.82;68.66
19736;BME280;32064;49.310;8.646;2023-05-07T01:38:39;100357.41;;;17.81;69.32
19736;BME280;32064;49.310;8.646;2023-05-07T01:41:06;100353.03;;;17.80;69.46
19736;BME280;32064;49.310;8.646;2023-05-07T01:43:31;100357.81;;;17.76;68.86
19736;BME280;32064;49.310;8.646;2023-05-07T01:45:57;100354.25;;;17.67;69.12
19736;BME280;32064;49.310;8.646;2023-05-07T01:48:24;100347.09;;;17.68;69.90
19736;BME280;32064;49.310;8.646;2023-05-07T01:50:50;100353.44;;;17.67;68.49
19736;BME280;32064;49.310;8.646;2023-05-07T01:53:16;100349.06;;;17.66;70.22
19736;BME280;32064;49.310;8.646;2023-05-07T01:55:41;100350.53;;;17.60;68.60
19736;BME280;32064;49.310;8.646;2023-05-07T01:58:07;100357.00;;;17.58;69.95
19736;BME280;32064;49.310;8.646;2023-05-07T02:00:32;100351.69;;;17.58;69.27
19736;BME280;32064;49.310;8.646;2023-05-07T02:02:58;100354.19;;;17.59;69.65
19736;BME280;32064;49.310;8.646;2023-05-07T02:05:23;100355.03;;;17.60;68.99
19736;BME280;32064;49.310;8.646;2023-05-07T02:07:49;100349.88;;;17.58;70.34
19736;BME280;32064;49.310;8.646;2023-05-07T02:10:14;100356.84;;;17.59;68.91
19736;BME280;32064;49.310;8.646;2023-05-07T02:12:40;100360.34;;;17.60;69.00
19736;BME280;32064;49.310;8.646;2023-05-07T02:15:05;100359.50;;;17.59;69.54
19736;BME280;32064;49.310;8.646;2023-05-07T02:17:31;100358.69;;;17.59;70.43
19736;BME280;32064;49.310;8.646;2023-05-07T02:19:59;100353.69;;;17.56;70.34
19736;BME280;32064;49.310;8.646;2023-05-07T02:22:25;100354.66;;;17.55;69.63
19736;BME280;32064;49.310;8.646;2023-05-07T02:24:50;100354.66;;;17.55;69.79
19736;BME280;32064;49.310;8.646;2023-05-07T02:27:16;100352.97;;;17.54;70.43
19736;BME280;32064;49.310;8.646;2023-05-07T02:29:41;100357.31;;;17.55;68.96
19736;BME280;32064;49.310;8.646;2023-05-07T02:32:07;100356.47;;;17.54;68.68
19736;BME280;32064;49.310;8.646;2023-05-07T02:34:32;100360.13;;;17.53;69.40
19736;BME280;32064;49.310;8.646;2023-05-07T02:36:58;100363.25;;;17.48;68.91
19736;BME280;32064;49.310;8.646;2023-05-07T02:39:23;100362.72;;;17.45;70.09
19736;BME280;32064;49.310;8.646;2023-05-07T02:41:48;100366.22;;;17.45;68.66
19736;BME280;32064;49.310;8.646;2023-05-07T02:44:14;100363.56;;;17.45;69.45
19736;BME280;32064;49.310;8.646;2023-05-07T02:46:39;100361.06;;;17.44;68.40
19736;BME280;32064;49.310;8.646;2023-05-07T02:49:05;100358.84;;;17.39;68.57
19736;BME280;32064;49.310;8.646;2023-05-07T02:51:31;100356.81;;;17.33;69.76
19736;BME280;32064;49.310;8.646;2023-05-07T02:53:56;100371.38;;;17.29;69.22
19736;BME280;32064;49.310;8.646;2023-05-07T02:56:22;100361.03;;;17.26;68.50
19736;BME280;32064;49.310;8.646;2023-05-07T02:58:47;100359.38;;;17.25;70.18
19736;BME280;32064;49.310;8.646;2023-05-07T03:01:13;100366.66;;;17.23;70.35
19736;BME280;32064;49.310;8.646;2023-05-07T03:03:39;100366.84;;;17.21;68.53
19736;BME280;32064;49.310;8.646;2023-05-07T03:06:05;100360.97;;;17.18;70.35
19736;BME280;32064;49.310;8.646;2023-05-07T03:08:30;100362.09;;;17.15;69.54
19736;BME280;32064;49.310;8.646;2023-05-07T03:10:56;100359.09;;;17.10;69.89
19736;BME280;32064;49.310;8.646;2023-05-07T03:13:21;100361.75;;;17.10;69.22
19736;BME280;32064;49.310;8.646;2023-05-07T03:15:47;100354.91;;;17.08;69.83
19736;BME280;32064;49.310;8.646;2023-05-07T03:18:12;100356.16;;;17.03;69.71
19736;BME280;32064;49.310;8.646;2023-05-07T03:20:37;100351.47;;;16.97;70.53
19736;BME280;32064;49.310;8.646;2023-05-07T03:23:03;100345.31;;;16.97;69.58
19736;BME280;32064;49.310;8.646;2023-05-07T03:25:28;100353.44;;;16.95;69.88
19736;BME280;32064;49.310;8.646;2023-05-07T03:27:55;100353.72;;;16.92;70.72
19736;BME280;32064;49.310;8.646;2023-05-07T03:30:21;100355.72;;;16.90;70.24
19736;BME280;32064;49.310;8.646;2023-05-07T03:32:46;100351.53;;;16.88;69.97
19736;BME280;32064;49.310;8.646;2023-05-07T03:35:11;100351.69;;;16.86;71.12
19736;BME280;32064;49.310;8.646;2023-05-07T03:37:37;100340.09;;;16.87;69.78
19736;BME280;32064;49.310;8.646;2023-05-07T03:40:03;100350.72;;;16.87;70.94
19736;BME280;32064;49.310;8.646;2023-05-07T03:42:29;100344.84;;;16.83;69.71
19736;BME280;32064;49.310;8.646;2023-05-07T03:44:55;100351.03;;;16.74;70.50
19736;BME280;32064;49.310;8.646;2023-05-07T03:47:20;100350.88;;;16.76;71.29
19736;BME280;32064;49.310;8.646;2023-05-07T03:49:45;100347.00;;;16.70;71.58
19736;BME280;32064;49.310;8.646;2023-05-07T03:52:11;100340.28;;;16.66;70.61
19736;BME280;32064;49.310;8.646;2023-05-07T03:54:36;100356.94;;;16.68;71.98
19736;BME280;32064;49.310;8.646;2023-05-07T03:57:01;100360.72;;;16.66;70.73
19736;BME280;32064;49.310;8.646;2023-05-07T03:59:27;100361.16;;;16.61;71.86
19736;BME280;32064;49.310;8.646;2023-05-07T04:01:52;100359.31;;;16.61;72.11
19736;BME280;32064;49.310;8.646;2023-05-07T04:04:17;100363.97;;;16.59;72.03
19736;BME280;32064;49.310;8.646;2023-05-07T04:06:43;100377.53;;;16.56;72.20
19736;BME280;32064;49.310;8.646;2023-05-07T04:09:08;100368.28;;;16.60;71.64
19736;BME280;32064;49.310;8.646;2023-05-07T04:11:35;100380.56;;;16.61;72.35
19736;BME280;32064;49.310;8.646;2023-05-07T04:14:01;100381.56;;;16.60;72.95
19736;BME280;32064;49.310;8.646;2023-05-07T04:16:26;100377.25;;;16.59;71.43
19736;BME280;32064;49.310;8.646;2023-05-07T04:18:52;100375.56;;;16.58;71.66
19736;BME280;32064;49.310;8.646;2023-05-07T04:21:19;100380.44;;;16.63;72.28
19736;BME280;32064;49.310;8.646;2023-05-07T04:23:46;100368.97;;;16.63;72.97
19736;BME280;32064;49.310;8.646;2023-05-07T04:26:12;100373.84;;;16.67;71.71
19736;BME280;32064;49.310;8.646;2023-05-07T04:28:38;100369.69;;;16.65;73.29
19736;BME280;32064;49.310;8.646;2023-05-07T04:31:04;100379.53;;;16.72;72.75
19736;BME280;32064;49.310;8.646;2023-05-07T04:33:29;100383.47;;;16.78;72.60
19736;BME280;32064;49.310;8.646;2023-05-07T04:35:55;100386.81;;;16.80;73.14
19736;BME280;32064;49.310;8.646;2023-05-07T04:38:20;100390.69;;;16.86;72.35
19736;BME280;32064;49.310;8.646;2023-05-07T04:40:46;100385.09;;;16.89;73.50
19736;BME280;32064;49.310;8.646;2023-05-07T04:43:12;100386.31;;;16.94;73.56
19736;BME280;32064;49.310;8.646;2023-05-07T04:45:38;100392.13;;;17.08;74.21
19736;BME280;32064;49.310;8.646;2023-05-07T04:48:06;100404.38;;;17.18;72.65
19736;BME280;32064;49.310;8.646;2023-05-07T04:50:32;100398.28;;;17.26;73.32
19736;BME280;32064;49.310;8.646;2023-05-07T04:52:58;100395.88;;;17.33;72.58
19736;BME280;32064;49.310;8.646;2023-05-07T04:55:23;100390.91;;;17.38;73.09
19736;BME280;32064;49.310;8.646;2023-05-07T04:57:49;100406.94;;;17.46;73.57
19736;BME280;32064;49.310;8.646;2023-05-07T05:00:15;100403.84;;;17.50;73.93
19736;BME280;32064;49.310;8.646;2023-05-07T05:02:41;100406.56;;;17.59;74.54
19736;BME280;32064;49.310;8.646;2023-05-07T05:05:07;100403.31;;;17.65;74.10
19736;BME280;32064;49.310;8.646;2023-05-07T05:07:33;100403.50;;;17.71;72.97
19736;BME280;32064;49.310;8.646;2023-05-07T05:09:58;100405.34;;;17.71;73.00
19736;BME280;32064;49.310;8.646;2023-05-07T05:12:24;100412.88;;;17.76;72.44
19736;BME280;32064;49.310;8.646;2023-05-07T05:14:49;100404.00;;;17.85;72.85
19736;BME280;32064;49.310;8.646;2023-05-07T05:17:15;100408.16;;;17.87;72.14
19736;BME280;32064;49.310;8.646;2023-05-07T05:19:40;100403.75;;;17.96;72.15
19736;BME280;32064;49.310;8.646;2023-05-07T05:22:06;100410.66;;;18.07;71.41
19736;BME280;32064;49.310;8.646;2023-05-07T05:24:31;100409.31;;;18.11;70.45
19736;BME280;32064;49.310;8.646;2023-05-07T05:26:56;100411.72;;;18.22;71.04
19736;BME280;32064;49.310;8.646;2023-05-07T05:29:22;100403.28;;;18.27;70.38
19736;BME280;32064;49.310;8.646;2023-05-07T05:31:47;100414.97;;;18.34;71.51
19736;BME280;32064;49.310;8.646;2023-05-07T05:34:13;100411.00;;;18.38;70.54
19736;BME280;32064;49.310;8.646;2023-05-07T05:36:38;100413.88;;;18.45;69.07
19736;BME280;32064;49.310;8.646;2023-05-07T05:39:04;100415.75;;;18.52;68.35
19736;BME280;32064;49.310;8.646;2023-05-07T05:41:29;100406.09;;;18.59;68.50
19736;BME280;32064;49.310;8.646;2023-05-07T05:43:55;100406.69;;;18.71;69.37
19736;BME280;32064;49.310;8.646;2023-05-07T05:46:21;100407.91;;;18.77;67.11
19736;BME280;32064;49.310;8.646;2023-05-07T05:48:47;100412.25;;;18.86;67.38
19736;BME280;32064;49.310;8.646;2023-05-07T05:51:12;100407.59;;;18.96;66.96
19736;BME280;32064;49.310;8.646;2023-05-07T05:53:37;100413.50;;;19.08;65.87
19736;BME280;32064;49.310;8.646;2023-05-07T05:56:03;100412.00;;;19.22;66.10
19736;BME280;32064;49.310;8.646;2023-05-07T05:58:29;100405.88;;;19.38;66.09
19736;BME280;32064;49.310;8.646;2023-05-07T06:00:54;100407.56;;;19.47;65.20
19736;BME280;32064;49.310;8.646;2023-05-07T06:03:20;100407.91;;;19.60;64.31
19736;BME280;32064;49.310;8.646;2023-05-07T06:05:45;100414.59;;;19.72;64.46
19736;BME280;32064;49.310;8.646;2023-05-07T06:08:11;100428.28;;;19.78;64.49
19736;BME280;32064;49.310;8.646;2023-05-07T06:10:37;100426.47;;;19.86;64.01
19736;BME280;32064;49.310;8.646;2023-05-07T06:13:02;100425.13;;;19.90;63.54
19736;BME280;32064;49.310;8.646;2023-05-07T06:15:28;100424.81;;;20.02;64.17
19736;BME280;32064;49.310;8.646;2023-05-07T06:17:53;100425.78;;;20.09;63.20
19736;BME280;32064;49.310;8.646;2023-05-07T06:20:21;100418.94;;;20.14;62.67
19736;BME280;32064;49.310;8.646;2023-05-07T06:22:46;100424.75;;;20.26;62.55
19736;BME280;32064;49.310;8.646;2023-05-07T06:25:11;100425.41;;;20.36;61.29
19736;BME280;32064;49.310;8.646;2023-05-07T06:27:37;100433.22;;;20.46;60.87
19736;BME280;32064;49.310;8.646;2023-05-07T06:30:02;100443.09;;;20.54;61.34
19736;BME280;32064;49.310;8.646;2023-05-07T06:32:28;100439.25;;;20.56;60.72
19736;BME280;32064;49.310;8.646;2023-05-07T06:34:53;100432.19;;;20.63;61.28
19736;BME280;32064;49.310;8.646;2023-05-07T06:37:18;100438.38;;;20.72;60.60
19736;BME280;32064;49.310;8.646;2023-05-07T06:39:44;100438.00;;;20.83;60.72
19736;BME280;32064;49.310;8.646;2023-05-07T06:42:09;100448.47;;;20.93;60.06
19736;BME280;32064;49.310;8.646;2023-05-07T06:44:35;100433.69;;;21.05;59.50
19736;BME280;32064;49.310;8.646;2023-05-07T06:47:00;100435.81;;;21.18;59.49
19736;BME280;32064;49.310;8.646;2023-05-07T06:49:26;100437.22;;;21.37;59.33
19736;BME280;32064;49.310;8.646;2023-05-07T06:51:51;100429.59;;;21.57;58.36
19736;BME280;32064;49.310;8.646;2023-05-07T06:54:17;100432.25;;;21.57;58.26
19736;BME280;32064;49.310;8.646;2023-05-07T06:56:42;100435.03;;;21.64;58.53
19736;BME280;32064;49.310;8.646;2023-05-07T06:59:08;100439.22;;;21.66;57.92
19736;BME280;32064;49.310;8.646;2023-05-07T07:01:33;100438.75;;;21.63;57.70
19736;BME280;32064;49.310;8.646;2023-05-07T07:03:58;100435.03;;;21.87;56.91
19736;BME280;32064;49.310;8.646;2023-05-07T07:06:24;100436.31;;;22.14;57.09
19736;BME280;32064;49.310;8.646;2023-05-07T07:08:50;100432.50;;;22.08;56.02
19736;BME280;32064;49.310;8.646;2023-05-07T07:11:16;100426.09;;;22.47;55.11
19736;BME280;32064;49.310;8.646;2023-05-07T07:13:41;100436.91;;;22.83;55.03
19736;BME280;32064;49.310;8.646;2023-05-07T07:16:08;100434.03;;;24.57;51.44
19736;BME280;32064;49.310;8.646;2023-05-07T07:18:33;100434.19;;;27.23;45.98
19736;BME280;32064;49.310;8.646;2023-05-07T07:20:58;100429.75;;;28.79;43.36
19736;BME280;32064;49.310;8.646;2023-05-07T07:23:24;100427.84;;;29.88;40.96
19736;BME280;32064;49.310;8.646;2023-05-07T07:25:50;100430.91;;;28.09;43.87
19736;BME280;32064;49.310;8.646;2023-05-07T07:28:15;100435.03;;;27.87;44.57
19736;BME280;32064;49.310;8.646;2023-05-07T07:30:41;100430.09;;;27.07;45.61
19736;BME280;32064;49.310;8.646;2023-05-07T07:33:06;100428.03;;;25.71;48.37
19736;BME280;32064;49.310;8.646;2023-05-07T07:35:32;100428.66;;;26.06;48.20
19736;BME280;32064;49.310;8.646;2023-05-07T07:37:58;100440.25;;;28.57;43.81
19736;BME280;32064;49.310;8.646;2023-05-07T07:40:24;100456.03;;;31.22;38.91
19736;BME280;32064;49.310;8.646;2023-05-07T07:42:50;100456.44;;;31.71;38.45
19736;BME280;32064;49.310;8.646;2023-05-07T07:45:16;100456.47;;;31.30;38.09
19736;BME280;32064;49.310;8.646;2023-05-07T07:47:41;100455.22;;;29.45;40.75
19736;BME280;32064;49.310;8.646;2023-05-07T07:50:07;100457.75;;;29.09;42.28
19736;BME280;32064;49.310;8.646;2023-05-07T07:52:33;100455.31;;;29.01;42.04
19736;BME280;32064;49.310;8.646;2023-05-07T07:54:59;100456.56;;;28.69;42.56
19736;BME280;32064;49.310;8.646;2023-05-07T07:57:24;100461.28;;;29.28;41.80
19736;BME280;32064;49.310;8.646;2023-05-07T07:59:50;100442.22;;;29.77;40.66
19736;BME280;32064;49.310;8.646;2023-05-07T08:02:16;100471.69;;;28.76;40.84
19736;BME280;32064;49.310;8.646;2023-05-07T08:04:42;100462.72;;;28.76;41.75
19736;BME280;32064;49.310;8.646;2023-05-07T08:07:09;100462.72;;;28.94;41.51
19736;BME280;32064;49.310;8.646;2023-05-07T08:09:34;100461.38;;;30.17;39.18
19736;BME280;32064;49.310;8.646;2023-05-07T08:12:00;100459.28;;;31.64;36.20
19736;BME280;32064;49.310;8.646;2023-05-07T08:14:26;100458.63;;;31.57;35.76
19736;BME280;32064;49.310;8.646;2023-05-07T08:16:53;100466.94;;;30.58;38.55
19736;BME280;32064;49.310;8.646;2023-05-07T08:19:19;100466.66;;;29.89;39.44
19736;BME280;32064;49.310;8.646;2023-05-07T08:21:45;100471.09;;;29.41;40.28
19736;BME280;32064;49.310;8.646;2023-05-07T08:24:16;100478.16;;;28.94;41.53
19736;BME280;32064;49.310;8.646;2023-05-07T08:26:41;100475.97;;;28.65;41.25
19736;BME280;32064;49.310;8.646;2023-05-07T08:29:07;100466.25;;;28.14;42.03
19736;BME280;32064;49.310;8.646;2023-05-07T08:31:33;100453.84;;;27.75;43.21
19736;BME280;32064;49.310;8.646;2023-05-07T08:33:59;100453.06;;;29.47;40.38
19736;BME280;32064;49.310;8.646;2023-05-07T08:36:25;100455.94;;;29.94;39.78
19736;BME280;32064;49.310;8.646;2023-05-07T08:38:51;100457.59;;;30.07;39.59
19736;BME280;32064;49.310;8.646;2023-05-07T08:41:16;100473.94;;;30.30;38.74
19736;BME280;32064;49.310;8.646;2023-05-07T08:43:46;100460.19;;;30.13;39.10
19736;BME280;32064;49.310;8.646;2023-05-07T08:46:19;100470.19;;;32.32;36.76
19736;BME280;32064;49.310;8.646;2023-05-07T08:48:48;100471.00;;;33.91;34.68
19736;BME280;32064;49.310;8.646;2023-05-07T08:51:18;100477.38;;;32.77;35.87
19736;BME280;32064;49.310;8.646;2023-05-07T08:53:44;100477.63;;;32.75;35.57
19736;BME280;32064;49.310;8.646;2023-05-07T08:56:10;100463.28;;;34.15;35.22
19736;BME280;32064;49.310;8.646;2023-05-07T08:58:36;100464.41;;;35.40;33.52
19736;BME280;32064;49.310;8.646;2023-05-07T09:01:08;100463.38;;;35.77;32.54
19736;BME280;32064;49.310;8.646;2023-05-07T09:03:34;100465.81;;;36.35;32.48
19736;BME280;32064;49.310;8.646;2023-05-07T09:06:00;100457.38;;;36.96;31.28
19736;BME280;32064;49.310;8.646;2023-05-07T09:08:26;100465.94;;;37.39;31.11
19736;BME280;32064;49.310;8.646;2023-05-07T09:10:53;100458.25;;;37.36;30.68
19736;BME280;32064;49.310;8.646;2023-05-07T09:13:18;100459.72;;;37.28;30.56
19736;BME280;32064;49.310;8.646;2023-05-07T09:15:44;100466.78;;;37.40;30.86
19736;BME280;32064;49.310;8.646;2023-05-07T09:18:10;100463.88;;;37.65;30.23
19736;BME280;32064;49.310;8.646;2023-05-07T09:20:39;100457.03;;;37.97;29.57
19736;BME280;32064;49.310;8.646;2023-05-07T09:23:06;100455.94;;;37.88;29.97
19736;BME280;32064;49.310;8.646;2023-05-07T09:25:33;100455.16;;;36.03;31.83
19736;BME280;32064;49.310;8.646;2023-05-07T09:28:03;100452.28;;;34.48;31.73
19736;BME280;32064;49.310;8.646;2023-05-07T09:30:31;100462.44;;;35.10;32.53
19736;BME280;32064;49.310;8.646;2023-05-07T09:32:58;100443.38;;;34.68;32.16
19736;BME280;32064;49.310;8.646;2023-05-07T09:35:24;100451.03;;;34.18;32.80
19736;BME280;32064;49.310;8.646;2023-05-07T09:37:53;100451.50;;;34.10;33.84
19736;BME280;32064;49.310;8.646;2023-05-07T09:40:22;100452.72;;;34.82;32.00
19736;BME280;32064;49.310;8.646;2023-05-07T09:42:49;100461.97;;;35.34;32.61
19736;BME280;32064;49.310;8.646;2023-05-07T09:45:16;100456.75;;;35.22;32.25
19736;BME280;32064;49.310;8.646;2023-05-07T09:47:42;100451.78;;;35.14;31.30
19736;BME280;32064;49.310;8.646;2023-05-07T09:50:12;100446.41;;;35.70;32.19
19736;BME280;32064;49.310;8.646;2023-05-07T09:52:40;100449.06;;;36.41;30.87
19736;BME280;32064;49.310;8.646;2023-05-07T09:55:07;100442.44;;;36.63;31.31
19736;BME280;32064;49.310;8.646;2023-05-07T09:57:34;100448.56;;;37.10;30.52
19736;BME280;32064;49.310;8.646;2023-05-07T10:00:01;100436.16;;;37.57;29.74
19736;BME280;32064;49.310;8.646;2023-05-07T10:02:30;100434.19;;;38.26;29.05
19736;BME280;32064;49.310;8.646;2023-05-07T10:04:56;100443.09;;;38.12;29.03
19736;BME280;32064;49.310;8.646;2023-05-07T10:07:24;100435.53;;;37.99;29.19
19736;BME280;32064;49.310;8.646;2023-05-07T10:09:50;100432.06;;;37.15;30.16
19736;BME280;32064;49.310;8.646;2023-05-07T10:12:17;100426.59;;;37.83;29.56
19736;BME280;32064;49.310;8.646;2023-05-07T10:14:43;100420.97;;;38.28;29.30
19736;BME280;32064;49.310;8.646;2023-05-07T10:17:11;100420.78;;;38.19;29.67
19736;BME280;32064;49.310;8.646;2023-05-07T10:19:37;100424.13;;;37.47;29.70
19736;BME280;32064;49.310;8.646;2023-05-07T10:22:05;100411.28;;;37.77;29.46
19736;BME280;32064;49.310;8.646;2023-05-07T10:24:36;100415.03;;;38.15;29.27
19736;BME280;32064;49.310;8.646;2023-05-07T10:27:04;100417.03;;;38.34;29.59
19736;BME280;32064;49.310;8.646;2023-05-07T10:30:04;100405.44;;;38.37;28.08
19736;BME280;32064;49.310;8.646;2023-05-07T10:32:53;100407.38;;;38.12;29.45
19736;BME280;32064;49.310;8.646;2023-05-07T10:35:25;100401.63;;;38.33;29.29
19736;BME280;32064;49.310;8.646;2023-05-07T10:37:51;100410.59;;;38.68;29.40
19736;BME280;32064;49.310;8.646;2023-05-07T10:40:17;100415.13;;;38.77;28.53
19736;BME280;32064;49.310;8.646;2023-05-07T10:42:57;100407.41;;;38.79;27.36
19736;BME280;32064;49.310;8.646;2023-05-07T10:45:25;100415.34;;;39.05;28.55
19736;BME280;32064;49.310;8.646;2023-05-07T10:48:16;100412.88;;;39.22;27.49
19736;BME280;32064;49.310;8.646;2023-05-07T10:50:43;100404.34;;;38.62;28.30
19736;BME280;32064;49.310;8.646;2023-05-07T10:55:48;100407.81;;;38.49;27.96
19736;BME280;32064;49.310;8.646;2023-05-07T10:58:24;100400.81;;;38.32;27.45
19736;BME280;32064;49.310;8.646;2023-05-07T11:00:58;100396.88;;;38.87;27.41
19736;BME280;32064;49.310;8.646;2023-05-07T11:03:24;100391.81;;;39.13;27.82
19736;BME280;32064;49.310;8.646;2023-05-07T11:06:11;100396.72;;;38.97;27.29
19736;BME280;32064;49.310;8.646;2023-05-07T11:11:17;100385.59;;;39.07;27.61
19736;BME280;32064;49.310;8.646;2023-05-07T11:13:44;100389.16;;;39.07;26.94
19736;BME280;32064;49.310;8.646;2023-05-07T11:16:23;100380.16;;;38.35;26.85
19736;BME280;32064;49.310;8.646;2023-05-07T11:18:51;100381.16;;;38.68;26.80
19736;BME280;32064;49.310;8.646;2023-05-07T11:21:35;100373.75;;;37.62;28.02
19736;BME280;32064;49.310;8.646;2023-05-07T11:24:03;100383.69;;;36.74;28.47
19736;BME280;32064;49.310;8.646;2023-05-07T11:26:32;100377.78;;;36.47;28.99
19736;BME280;32064;49.310;8.646;2023-05-07T11:29:11;100379.88;;;36.70;28.66
19736;BME280;32064;49.310;8.646;2023-05-07T11:31:36;100378.03;;;36.45;28.41
19736;BME280;32064;49.310;8.646;2023-05-07T11:34:02;100366.91;;;36.16;29.20
19736;BME280;32064;49.310;8.646;2023-05-07T11:36:31;100355.50;;;35.73;29.24
19736;BME280;32064;49.310;8.646;2023-05-07T11:38:57;100364.78;;;35.36;28.87
19736;BME280;32064;49.310;8.646;2023-05-07T11:41:22;100374.84;;;35.05;29.60
19736;BME280;32064;49.310;8.646;2023-05-07T11:43:55;100370.91;;;34.65;30.26
19736;BME280;32064;49.310;8.646;2023-05-07T11:46:21;100366.59;;;34.74;29.32
19736;BME280;32064;49.310;8.646;2023-05-07T11:48:47;100366.34;;;34.86;29.68
19736;BME280;32064;49.310;8.646;2023-05-07T11:51:12;100360.78;;;34.55;30.98
19736;BME280;32064;49.310;8.646;2023-05-07T11:53:40;100370.84;;;34.02;30.13
19736;BME280;32064;49.310;8.646;2023-05-07T11:56:10;100363.06;;;33.79;30.71
19736;BME280;32064;49.310;8.646;2023-05-07T11:58:36;100351.56;;;33.76;30.76
19736;BME280;32064;49.310;8.646;2023-05-07T12:01:02;100355.84;;;33.62;31.65
19736;BME280;32064;49.310;8.646;2023-05-07T12:03:28;100356.81;;;33.83;31.89
19736;BME280;32064;49.310;8.646;2023-05-07T12:05:53;100340.25;;;34.00;31.71
19736;BME280;32064;49.310;8.646;2023-05-07T12:08:20;100354.94;;;33.94;31.92
19736;BME280;32064;49.310;8.646;2023-05-07T12:10:48;100344.63;;;34.01;32.48
19736;BME280;32064;49.310;8.646;2023-05-07T12:13:15;100350.63;;;33.98;31.42
19736;BME280;32064;49.310;8.646;2023-05-07T12:15:42;100358.34;;;33.69;32.59
19736;BME280;32064;49.310;8.646;2023-05-07T12:18:07;100353.34;;;33.56;31.86
19736;BME280;32064;49.310;8.646;2023-05-07T12:20:34;100355.00;;;33.62;31.74
19736;BME280;32064;49.310;8.646;2023-05-07T12:23:01;100362.50;;;33.44;32.77
19736;BME280;32064;49.310;8.646;2023-05-07T12:25:26;100344.50;;;33.43;32.21
19736;BME280;32064;49.310;8.646;2023-05-07T12:27:52;100345.31;;;33.44;32.12
19736;BME280;32064;49.310;8.646;2023-05-07T12:30:18;100345.31;;;33.44;32.23
19736;BME280;32064;49.310;8.646;2023-05-07T12:32:45;100339.50;;;33.67;32.93
19736;BME280;32064;49.310;8.646;2023-05-07T12:35:10;100338.22;;;33.80;32.89
19736;BME280;32064;49.310;8.646;2023-05-07T12:37:36;100326.03;;;33.98;32.02
19736;BME280;32064;49.310;8.646;2023-05-07T12:42:38;100338.72;;;33.72;31.89
19736;BME280;32064;49.310;8.646;2023-05-07T12:45:11;100324.28;;;33.44;31.33
19736;BME280;32064;49.310;8.646;2023-05-07T12:47:36;100336.31;;;33.43;32.37
19736;BME280;32064;49.310;8.646;2023-05-07T12:50:05;100333.38;;;32.96;32.51
19736;BME280;32064;49.310;8.646;2023-05-07T12:52:30;100329.00;;;32.68;32.45
19736;BME280;32064;49.310;8.646;2023-05-07T12:54:56;100323.38;;;32.52;32.68